Hlavní strana
METAR-TAF:

METAR-TAF

Letiště :

Letiště Madeira

Funchal, Madeira, Portugalsko

zeměpisná šířka: 32-41-52N, zeměpisná délka: 016-46-28W, výška: 59 m

Aktuální stav počasí

Zpráva byla vytvořena před 20 minutami, v 01:30 UTC
Severoseverovýchodní vítr 14 kt, proměnlivý mezi severním a severovýchodním
Teplota 16°C
Vlhkost vzduchu 68%
Tlak 1029 hPa
Viditelnost 10 km a více
Skoro jasno ve výšce 1500 ft

METAR: LPMA 260130Z 03014KT 350V050 9999 FEW015 16/10 Q1029

Čas: 01:50 (01:50 UTC)

Předpověď počasí

Zpráva byla vytvořena před 2 hodinami a 50 minutami, v 23:00 UTC
Předpověď platná od 26 v 00 UTC do 26 v 24 UTC
Severoseverovýchodní vítr 12 kt
Viditelnost 10 km a více
Polojasno ve výšce 1500 ft
Dočasný
od 26 v 00 UTC do 26 v 18 UTC
Polojasno ve výšce 1200 ft
Oblačno až skoro zataženo ve výšce 3000 ft
Pravděpodobnost 40% :
Dočasný
od 26 v 00 UTC do 26 v 24 UTC
Severní vítr 17 kt s nárazy do 27 kt

TAF: LPMA 252300Z 2600/2624 02012KT 9999 SCT015 TEMPO 2600/2618 SCT012 BKN030 PROB40 TEMPO 2600/2624 01017G27KT

Stav a předpovědi počasí z více než 4 000 letišť (zprávy METAR a TAF).

Červené a žluté tečky na mapě představují dostupné meteorologické stanice.

Když kurzor umístíte na tečku, zobrazí se název stanice.

Pak kliknutím zobrazíte stav a předpověď počasí.

Chcete-li změnit mapu, kliknutím na zelené tlačítko se znaménkem +mapu přiblížíte, kliknutím na zelené tlačítko se znaménkem – mapu oddálíte a kliknutím na zelené šipky přejdete na sousední mapy.


METAR-TAF: